Portada
METAR-TAF:

METAR-TAF

Aeropuertos :

Aeropuerto de Reus

Reus, España

latitud: 41-09N, longitud: 001-10E, altitud: 71 m

Observación

El informe se hizo hace 20 minutos, a las 07:00 UTC
Viento 2 kt con dirección variable
Temperatura 18°C
Humedad 64%
Presión 1012 hPa
Visibilidad 10 km o más
Escasas nubes a una altura de 3000 ft

METAR: LERS 270700Z VRB02KT 9999 FEW030 18/11 Q1012

Hora: 09:20 (07:20 UTC)

Pronóstico

El informe se hizo hace 5 horas y 20 minutos, a las 02:00 UTC
Pronóstico válido del 27 a las 03 UTC al 28 a las 03 UTC
Viento 9 kt del oeste
Visibilidad 10 km o más
sin nubes por debajo de 1500 m y sin presencia de cumulonimbus.
Evolucionando progresivamente
del 27 a las 14 UTC al 27 a las 16 UTC
Viento 10 kt del sur-suroeste
Evolucionando progresivamente
del 27 a las 20 UTC al 27 a las 22 UTC
Viento 4 kt con dirección variable

TAF: LERS 270200Z 2703/2803 28009KT CAVOK TX26/2712Z TN13/2706Z BECMG 2714/2716 20010KT BECMG 2720/2722 VRB04KT

Observaciones y pronósticos meteorológicos de más de 4000 aeropuertos (mensajes METAR y TAF).

Los puntos amarillos y rojos representan las estaciones disponibles.

Ponga el ratón en el punto deseado para ver el nombre de la estación.

Haga clic para ver las observaciones y los pronósticos meteorológicos.

Para cambiar el mapa : haga clic en los botones verdes con una cruz de color negro para hacer un zoom, en el botón verde con un guión para alejar o en las flechas verdes para mapas adyacentes.


METAR-TAF: